sensor_id;sensor_type;location;lat;lon;timestamp;pressure;altitude;pressure_sealevel;temperature;humidity
48156;BME280;35568;48.104;11.782;2023-02-26T00:01:25;94490.84;;;-0.43;52.29
48156;BME280;35568;48.104;11.782;2023-02-26T00:03:54;94485.66;;;-0.07;52.34
48156;BME280;35568;48.104;11.782;2023-02-26T00:06:23;94486.91;;;-0.80;52.62
48156;BME280;35568;48.104;11.782;2023-02-26T00:08:50;94493.07;;;-0.46;52.41
48156;BME280;35568;48.104;11.782;2023-02-26T00:11:17;94493.84;;;-0.57;53.07
48156;BME280;35568;48.104;11.782;2023-02-26T00:13:44;94499.25;;;-0.19;52.94
48156;BME280;35568;48.104;11.782;2023-02-26T00:16:22;94497.13;;;-0.32;53.12
48156;BME280;35568;48.104;11.782;2023-02-26T00:18:51;94499.82;;;-0.08;52.95
48156;BME280;35568;48.104;11.782;2023-02-26T00:21:21;94501.20;;;0.02;52.34
48156;BME280;35568;48.104;11.782;2023-02-26T00:23:49;94505.00;;;-0.13;52.13
48156;BME280;35568;48.104;11.782;2023-02-26T00:26:17;94503.49;;;-0.33;51.55
48156;BME280;35568;48.104;11.782;2023-02-26T00:28:45;94501.48;;;-0.33;52.00
48156;BME280;35568;48.104;11.782;2023-02-26T00:31:14;94507.52;;;-0.11;51.95
48156;BME280;35568;48.104;11.782;2023-02-26T00:33:42;94509.92;;;-0.38;51.94
48156;BME280;35568;48.104;11.782;2023-02-26T00:36:18;94507.43;;;-0.59;52.27
48156;BME280;35568;48.104;11.782;2023-02-26T00:38:56;94513.09;;;-0.18;51.70
48156;BME280;35568;48.104;11.782;2023-02-26T00:41:28;94515.37;;;-0.33;52.20
48156;BME280;35568;48.104;11.782;2023-02-26T00:43:55;94516.59;;;-0.25;51.68
48156;BME280;35568;48.104;11.782;2023-02-26T00:46:32;94518.55;;;-0.46;51.82
48156;BME280;35568;48.104;11.782;2023-02-26T00:49:09;94521.09;;;-0.10;52.07
48156;BME280;35568;48.104;11.782;2023-02-26T00:51:47;94520.11;;;-0.29;51.85
48156;BME280;35568;48.104;11.782;2023-02-26T00:54:18;94520.20;;;-0.14;51.63
48156;BME280;35568;48.104;11.782;2023-02-26T00:56:46;94522.61;;;0.00;51.81
48156;BME280;35568;48.104;11.782;2023-02-26T00:59:14;94525.97;;;-0.28;51.96
48156;BME280;35568;48.104;11.782;2023-02-26T01:01:40;94523.68;;;-0.67;52.21
48156;BME280;35568;48.104;11.782;2023-02-26T01:04:08;94522.28;;;-0.42;52.93
48156;BME280;35568;48.104;11.782;2023-02-26T01:06:40;94523.60;;;-0.35;52.40
48156;BME280;35568;48.104;11.782;2023-02-26T01:09:15;94518.45;;;-0.23;51.68
48156;BME280;35568;48.104;11.782;2023-02-26T01:11:44;94518.10;;;-0.03;51.35
48156;BME280;35568;48.104;11.782;2023-02-26T01:14:12;94518.75;;;-0.17;51.21
48156;BME280;35568;48.104;11.782;2023-02-26T01:16:46;94521.67;;;-0.23;51.39
48156;BME280;35568;48.104;11.782;2023-02-26T01:19:23;94526.39;;;0.23;51.40
48156;BME280;35568;48.104;11.782;2023-02-26T01:21:58;94524.48;;;0.14;50.37
48156;BME280;35568;48.104;11.782;2023-02-26T01:24:29;94523.94;;;-0.18;50.24
48156;BME280;35568;48.104;11.782;2023-02-26T01:26:57;94521.65;;;-0.09;50.54
48156;BME280;35568;48.104;11.782;2023-02-26T01:29:24;94522.02;;;0.00;50.62
48156;BME280;35568;48.104;11.782;2023-02-26T01:31:55;94518.87;;;-0.07;50.54
48156;BME280;35568;48.104;11.782;2023-02-26T01:34:30;94522.65;;;0.33;49.87
48156;BME280;35568;48.104;11.782;2023-02-26T01:37:06;94522.87;;;0.19;49.87
48156;BME280;35568;48.104;11.782;2023-02-26T01:39:40;94525.92;;;0.20;50.05
48156;BME280;35568;48.104;11.782;2023-02-26T01:42:16;94524.52;;;-0.05;50.66
48156;BME280;35568;48.104;11.782;2023-02-26T01:44:55;94521.34;;;-0.32;50.55
48156;BME280;35568;48.104;11.782;2023-02-26T01:47:29;94523.08;;;-0.35;50.69
48156;BME280;35568;48.104;11.782;2023-02-26T01:50:11;94527.81;;;-0.58;51.23
48156;BME280;35568;48.104;11.782;2023-02-26T01:53:19;94526.81;;;-0.79;51.12
48156;BME280;35568;48.104;11.782;2023-02-26T01:55:51;94531.25;;;-0.58;51.00
48156;BME280;35568;48.104;11.782;2023-02-26T01:58:20;94531.09;;;-0.69;51.38
48156;BME280;35568;48.104;11.782;2023-02-26T02:00:48;94534.57;;;-0.57;51.59
48156;BME280;35568;48.104;11.782;2023-02-26T02:03:15;94535.77;;;-0.65;50.72
48156;BME280;35568;48.104;11.782;2023-02-26T02:05:46;94537.78;;;-0.82;51.61
48156;BME280;35568;48.104;11.782;2023-02-26T02:08:16;94538.58;;;-1.06;52.06
48156;BME280;35568;48.104;11.782;2023-02-26T02:10:45;94539.05;;;-0.89;51.58
48156;BME280;35568;48.104;11.782;2023-02-26T02:13:24;94545.86;;;-0.88;52.11
48156;BME280;35568;48.104;11.782;2023-02-26T02:16:05;94546.61;;;-0.62;51.27
48156;BME280;35568;48.104;11.782;2023-02-26T02:18:37;94552.66;;;-0.46;50.62
48156;BME280;35568;48.104;11.782;2023-02-26T02:23:21;94557.03;;;0.45;50.73
48156;BME280;35568;48.104;11.782;2023-02-26T02:26:16;94557.58;;;0.13;49.96
48156;BME280;35568;48.104;11.782;2023-02-26T02:28:58;94561.21;;;0.16;49.87
48156;BME280;35568;48.104;11.782;2023-02-26T02:31:32;94561.48;;;0.51;49.41
48156;BME280;35568;48.104;11.782;2023-02-26T02:34:06;94562.93;;;0.21;48.78
48156;BME280;35568;48.104;11.782;2023-02-26T02:36:39;94568.14;;;-0.00;49.62
48156;BME280;35568;48.104;11.782;2023-02-26T02:39:09;94567.27;;;-0.17;49.71
48156;BME280;35568;48.104;11.782;2023-02-26T02:41:43;94569.39;;;-0.24;50.73
48156;BME280;35568;48.104;11.782;2023-02-26T02:44:16;94570.83;;;-0.48;50.35
48156;BME280;35568;48.104;11.782;2023-02-26T02:46:46;94571.74;;;-0.27;50.39
48156;BME280;35568;48.104;11.782;2023-02-26T02:49:20;94573.25;;;-0.51;50.44
48156;BME280;35568;48.104;11.782;2023-02-26T02:51:53;94577.11;;;-0.38;50.21
48156;BME280;35568;48.104;11.782;2023-02-26T02:54:23;94576.80;;;0.06;50.32
48156;BME280;35568;48.104;11.782;2023-02-26T02:56:55;94579.62;;;-0.36;50.26
48156;BME280;35568;48.104;11.782;2023-02-26T02:59:27;94582.45;;;-0.49;50.02
48156;BME280;35568;48.104;11.782;2023-02-26T03:02:04;94581.85;;;-0.68;50.66
48156;BME280;35568;48.104;11.782;2023-02-26T03:04:33;94582.38;;;-0.95;50.15
48156;BME280;35568;48.104;11.782;2023-02-26T03:07:01;94587.93;;;-1.10;50.60
48156;BME280;35568;48.104;11.782;2023-02-26T03:09:27;94584.38;;;-0.80;50.77
48156;BME280;35568;48.104;11.782;2023-02-26T03:11:55;94588.46;;;-0.96;50.52
48156;BME280;35568;48.104;11.782;2023-02-26T03:14:21;94590.04;;;-1.42;50.13
48156;BME280;35568;48.104;11.782;2023-02-26T03:16:59;94594.26;;;-1.19;50.93
48156;BME280;35568;48.104;11.782;2023-02-26T03:19:30;94595.60;;;-0.67;50.40
48156;BME280;35568;48.104;11.782;2023-02-26T03:22:05;94597.42;;;-1.20;49.95
48156;BME280;35568;48.104;11.782;2023-02-26T03:24:36;94595.70;;;-1.08;50.11
48156;BME280;35568;48.104;11.782;2023-02-26T03:27:12;94598.43;;;-1.31;49.65
48156;BME280;35568;48.104;11.782;2023-02-26T03:29:47;94601.69;;;-0.97;50.64
48156;BME280;35568;48.104;11.782;2023-02-26T03:32:20;94601.18;;;-0.60;49.88
48156;BME280;35568;48.104;11.782;2023-02-26T03:34:53;94603.80;;;-0.60;49.07
48156;BME280;35568;48.104;11.782;2023-02-26T03:37:25;94603.47;;;-0.53;48.98
48156;BME280;35568;48.104;11.782;2023-02-26T03:39:56;94607.83;;;-1.20;48.66
48156;BME280;35568;48.104;11.782;2023-02-26T03:42:27;94610.23;;;-1.40;49.57
48156;BME280;35568;48.104;11.782;2023-02-26T03:44:58;94618.44;;;-1.42;49.91
48156;BME280;35568;48.104;11.782;2023-02-26T03:47:28;94622.58;;;-1.44;49.95
48156;BME280;35568;48.104;11.782;2023-02-26T03:50:00;94624.21;;;-1.53;49.89
48156;BME280;35568;48.104;11.782;2023-02-26T03:52:33;94629.11;;;-1.20;49.34
48156;BME280;35568;48.104;11.782;2023-02-26T03:55:04;94631.86;;;-1.34;49.29
48156;BME280;35568;48.104;11.782;2023-02-26T03:57:33;94630.67;;;-1.10;49.20
48156;BME280;35568;48.104;11.782;2023-02-26T04:00:00;94631.95;;;-1.23;48.36
48156;BME280;35568;48.104;11.782;2023-02-26T04:03:04;94634.88;;;-0.97;48.66
48156;BME280;35568;48.104;11.782;2023-02-26T04:05:35;94639.71;;;-0.60;48.52
48156;BME280;35568;48.104;11.782;2023-02-26T04:08:04;94641.88;;;-1.16;47.93
48156;BME280;35568;48.104;11.782;2023-02-26T04:10:35;94642.48;;;-0.72;48.00
48156;BME280;35568;48.104;11.782;2023-02-26T04:13:03;94644.02;;;-0.82;48.11
48156;BME280;35568;48.104;11.782;2023-02-26T04:15:30;94642.72;;;-1.02;47.62
48156;BME280;35568;48.104;11.782;2023-02-26T04:17:57;94643.23;;;-0.95;48.01
48156;BME280;35568;48.104;11.782;2023-02-26T04:20:24;94638.19;;;-1.06;47.79
48156;BME280;35568;48.104;11.782;2023-02-26T04:22:51;94642.75;;;-1.04;48.31
48156;BME280;35568;48.104;11.782;2023-02-26T04:25:18;94645.98;;;-0.99;48.14
48156;BME280;35568;48.104;11.782;2023-02-26T04:27:45;94646.03;;;-1.25;47.73
48156;BME280;35568;48.104;11.782;2023-02-26T04:30:12;94647.91;;;-1.39;47.67
48156;BME280;35568;48.104;11.782;2023-02-26T04:32:39;94649.25;;;-1.30;48.15
48156;BME280;35568;48.104;11.782;2023-02-26T04:35:06;94653.46;;;-1.34;47.52
48156;BME280;35568;48.104;11.782;2023-02-26T04:37:34;94660.31;;;-1.38;48.11
48156;BME280;35568;48.104;11.782;2023-02-26T04:40:01;94659.48;;;-1.27;47.69
48156;BME280;35568;48.104;11.782;2023-02-26T04:42:28;94659.04;;;-1.22;47.71
48156;BME280;35568;48.104;11.782;2023-02-26T04:44:55;94662.43;;;-1.70;47.33
48156;BME280;35568;48.104;11.782;2023-02-26T04:47:22;94667.03;;;-1.65;47.19
48156;BME280;35568;48.104;11.782;2023-02-26T04:49:48;94667.45;;;-1.04;47.14
48156;BME280;35568;48.104;11.782;2023-02-26T04:52:15;94672.63;;;-1.56;46.39
48156;BME280;35568;48.104;11.782;2023-02-26T04:54:42;94675.42;;;-1.48;46.43
48156;BME280;35568;48.104;11.782;2023-02-26T04:57:09;94680.66;;;-1.43;45.93
48156;BME280;35568;48.104;11.782;2023-02-26T04:59:36;94685.57;;;-1.67;46.15
48156;BME280;35568;48.104;11.782;2023-02-26T05:02:04;94681.85;;;-1.65;46.07
48156;BME280;35568;48.104;11.782;2023-02-26T05:04:31;94683.90;;;-1.75;45.91
48156;BME280;35568;48.104;11.782;2023-02-26T05:06:58;94690.18;;;-1.58;45.54
48156;BME280;35568;48.104;11.782;2023-02-26T05:09:25;94689.59;;;-1.61;45.46
48156;BME280;35568;48.104;11.782;2023-02-26T05:11:52;94690.05;;;-1.19;45.37
48156;BME280;35568;48.104;11.782;2023-02-26T05:14:19;94692.90;;;-1.16;45.22
48156;BME280;35568;48.104;11.782;2023-02-26T05:16:46;94691.17;;;-1.16;44.55
48156;BME280;35568;48.104;11.782;2023-02-26T05:19:13;94691.89;;;-1.86;44.99
48156;BME280;35568;48.104;11.782;2023-02-26T05:21:40;94695.17;;;-1.87;45.05
48156;BME280;35568;48.104;11.782;2023-02-26T05:24:07;94695.97;;;-1.58;44.69
48156;BME280;35568;48.104;11.782;2023-02-26T05:26:34;94697.16;;;-1.45;45.26
48156;BME280;35568;48.104;11.782;2023-02-26T05:29:00;94701.71;;;-1.41;44.71
48156;BME280;35568;48.104;11.782;2023-02-26T05:31:28;94698.49;;;-1.25;45.30
48156;BME280;35568;48.104;11.782;2023-02-26T05:33:54;94698.90;;;-1.26;44.93
48156;BME280;35568;48.104;11.782;2023-02-26T05:36:21;94696.19;;;-1.36;44.77
48156;BME280;35568;48.104;11.782;2023-02-26T05:38:48;94697.82;;;-1.44;45.45
48156;BME280;35568;48.104;11.782;2023-02-26T05:41:15;94700.82;;;-1.55;45.81
48156;BME280;35568;48.104;11.782;2023-02-26T05:43:42;94699.79;;;-1.46;45.76
48156;BME280;35568;48.104;11.782;2023-02-26T05:46:09;94706.69;;;-1.88;45.82
48156;BME280;35568;48.104;11.782;2023-02-26T05:48:36;94712.32;;;-1.72;45.55
48156;BME280;35568;48.104;11.782;2023-02-26T05:51:03;94716.37;;;-1.28;46.42
48156;BME280;35568;48.104;11.782;2023-02-26T05:53:30;94720.06;;;-1.38;46.39
48156;BME280;35568;48.104;11.782;2023-02-26T05:55:56;94728.23;;;-1.16;45.08
48156;BME280;35568;48.104;11.782;2023-02-26T05:58:23;94735.15;;;-0.81;45.34
48156;BME280;35568;48.104;11.782;2023-02-26T06:00:50;94739.10;;;-0.64;44.52
48156;BME280;35568;48.104;11.782;2023-02-26T06:03:17;94742.92;;;-0.98;45.30
48156;BME280;35568;48.104;11.782;2023-02-26T06:05:44;94741.38;;;-0.44;45.21
48156;BME280;35568;48.104;11.782;2023-02-26T06:08:11;94745.11;;;-0.51;45.36
48156;BME280;35568;48.104;11.782;2023-02-26T06:10:38;94749.69;;;-0.16;44.41
48156;BME280;35568;48.104;11.782;2023-02-26T06:13:05;94754.51;;;0.03;43.50
48156;BME280;35568;48.104;11.782;2023-02-26T06:15:32;94759.25;;;0.07;43.17
48156;BME280;35568;48.104;11.782;2023-02-26T06:17:59;94758.43;;;-0.07;43.20
48156;BME280;35568;48.104;11.782;2023-02-26T06:20:26;94763.79;;;-0.08;43.30
48156;BME280;35568;48.104;11.782;2023-02-26T06:22:53;94767.24;;;0.43;43.10
48156;BME280;35568;48.104;11.782;2023-02-26T06:25:20;94770.20;;;-0.22;43.56
48156;BME280;35568;48.104;11.782;2023-02-26T06:27:47;94778.74;;;-0.10;43.54
48156;BME280;35568;48.104;11.782;2023-02-26T06:30:14;94783.76;;;-0.09;43.70
48156;BME280;35568;48.104;11.782;2023-02-26T06:32:41;94782.77;;;-0.17;43.69
48156;BME280;35568;48.104;11.782;2023-02-26T06:35:08;94785.20;;;-0.09;43.18
48156;BME280;35568;48.104;11.782;2023-02-26T06:37:36;94784.62;;;0.04;42.84
48156;BME280;35568;48.104;11.782;2023-02-26T06:40:03;94787.40;;;-0.50;43.71
48156;BME280;35568;48.104;11.782;2023-02-26T06:42:30;94792.08;;;-0.28;43.75
48156;BME280;35568;48.104;11.782;2023-02-26T06:44:57;94801.31;;;-0.12;43.47
48156;BME280;35568;48.104;11.782;2023-02-26T06:47:24;94812.32;;;-0.05;43.61
48156;BME280;35568;48.104;11.782;2023-02-26T06:49:51;94820.71;;;-0.09;43.48
48156;BME280;35568;48.104;11.782;2023-02-26T06:52:18;94822.74;;;0.28;43.49
48156;BME280;35568;48.104;11.782;2023-02-26T06:54:45;94825.96;;;-0.07;43.62
48156;BME280;35568;48.104;11.782;2023-02-26T06:57:12;94829.78;;;0.31;42.64
48156;BME280;35568;48.104;11.782;2023-02-26T06:59:39;94828.14;;;0.22;42.75
48156;BME280;35568;48.104;11.782;2023-02-26T07:02:06;94826.71;;;-0.23;42.42
48156;BME280;35568;48.104;11.782;2023-02-26T07:04:33;94829.97;;;-0.20;43.16
48156;BME280;35568;48.104;11.782;2023-02-26T07:07:00;94832.54;;;-0.61;43.01
48156;BME280;35568;48.104;11.782;2023-02-26T07:09:27;94836.79;;;-0.41;43.84
48156;BME280;35568;48.104;11.782;2023-02-26T07:11:54;94838.78;;;-0.69;43.71
48156;BME280;35568;48.104;11.782;2023-02-26T07:14:21;94845.46;;;-0.39;43.64
48156;BME280;35568;48.104;11.782;2023-02-26T07:16:48;94849.47;;;-0.44;43.46
48156;BME280;35568;48.104;11.782;2023-02-26T07:19:14;94846.80;;;-0.15;43.60
48156;BME280;35568;48.104;11.782;2023-02-26T07:21:41;94845.37;;;0.16;43.13
48156;BME280;35568;48.104;11.782;2023-02-26T07:24:08;94850.86;;;0.32;42.85
48156;BME280;35568;48.104;11.782;2023-02-26T07:26:35;94850.79;;;0.71;42.60
48156;BME280;35568;48.104;11.782;2023-02-26T07:29:02;94849.59;;;0.47;41.40
48156;BME280;35568;48.104;11.782;2023-02-26T07:31:29;94853.85;;;-0.22;42.20
48156;BME280;35568;48.104;11.782;2023-02-26T07:33:56;94858.47;;;-0.53;42.59
48156;BME280;35568;48.104;11.782;2023-02-26T07:36:23;94861.39;;;-0.28;43.89
48156;BME280;35568;48.104;11.782;2023-02-26T07:38:50;94865.74;;;-0.10;42.87
48156;BME280;35568;48.104;11.782;2023-02-26T07:41:17;94870.41;;;0.25;42.94
48156;BME280;35568;48.104;11.782;2023-02-26T07:43:44;94875.98;;;0.81;42.65
48156;BME280;35568;48.104;11.782;2023-02-26T07:46:11;94878.89;;;0.77;41.80
48156;BME280;35568;48.104;11.782;2023-02-26T07:48:38;94879.16;;;0.64;40.87
48156;BME280;35568;48.104;11.782;2023-02-26T07:51:06;94878.13;;;0.51;41.24
48156;BME280;35568;48.104;11.782;2023-02-26T07:53:33;94877.30;;;0.83;41.34
48156;BME280;35568;48.104;11.782;2023-02-26T07:55:59;94878.00;;;0.67;40.97
48156;BME280;35568;48.104;11.782;2023-02-26T07:58:26;94883.66;;;0.80;41.88
48156;BME280;35568;48.104;11.782;2023-02-26T08:00:53;94892.74;;;0.65;41.68
48156;BME280;35568;48.104;11.782;2023-02-26T08:03:20;94898.47;;;0.66;41.35
48156;BME280;35568;48.104;11.782;2023-02-26T08:05:47;94903.34;;;0.98;42.02
48156;BME280;35568;48.104;11.782;2023-02-26T08:08:14;94909.06;;;0.48;41.96
48156;BME280;35568;48.104;11.782;2023-02-26T08:10:41;94911.08;;;0.29;43.37
48156;BME280;35568;48.104;11.782;2023-02-26T08:13:09;94912.86;;;0.46;42.21
48156;BME280;35568;48.104;11.782;2023-02-26T08:15:35;94912.66;;;0.61;42.19
48156;BME280;35568;48.104;11.782;2023-02-26T08:18:02;94918.53;;;0.96;42.55
48156;BME280;35568;48.104;11.782;2023-02-26T08:20:29;94925.01;;;0.70;42.97
48156;BME280;35568;48.104;11.782;2023-02-26T08:22:56;94925.67;;;0.46;42.17
48156;BME280;35568;48.104;11.782;2023-02-26T08:25:23;94931.83;;;0.72;46.57
48156;BME280;35568;48.104;11.782;2023-02-26T08:27:51;94930.28;;;0.78;42.52
48156;BME280;35568;48.104;11.782;2023-02-26T08:30:18;94927.24;;;0.89;41.93
48156;BME280;35568;48.104;11.782;2023-02-26T08:32:44;94929.49;;;0.33;41.24
48156;BME280;35568;48.104;11.782;2023-02-26T08:35:11;94934.73;;;0.03;42.29
48156;BME280;35568;48.104;11.782;2023-02-26T08:37:38;94934.70;;;0.25;42.70
48156;BME280;35568;48.104;11.782;2023-02-26T08:40:07;94936.08;;;0.33;41.91
48156;BME280;35568;48.104;11.782;2023-02-26T08:42:34;94936.50;;;0.20;42.91
48156;BME280;35568;48.104;11.782;2023-02-26T08:45:02;94943.54;;;0.12;42.29
48156;BME280;35568;48.104;11.782;2023-02-26T08:47:30;94948.51;;;0.44;42.52
48156;BME280;35568;48.104;11.782;2023-02-26T08:49:57;94947.43;;;0.45;43.00
48156;BME280;35568;48.104;11.782;2023-02-26T08:52:24;94948.57;;;0.72;42.62
48156;BME280;35568;48.104;11.782;2023-02-26T08:54:51;94951.71;;;1.00;41.55
48156;BME280;35568;48.104;11.782;2023-02-26T08:57:18;94953.04;;;0.84;41.66
48156;BME280;35568;48.104;11.782;2023-02-26T08:59:45;94957.17;;;0.79;42.03
48156;BME280;35568;48.104;11.782;2023-02-26T09:02:13;94961.00;;;1.31;42.06
48156;BME280;35568;48.104;11.782;2023-02-26T09:04:40;94965.27;;;1.37;41.08
48156;BME280;35568;48.104;11.782;2023-02-26T09:07:07;94975.32;;;1.80;41.00
48156;BME280;35568;48.104;11.782;2023-02-26T09:09:34;94981.77;;;1.92;40.30
48156;BME280;35568;48.104;11.782;2023-02-26T09:12:01;94983.84;;;1.98;40.38
48156;BME280;35568;48.104;11.782;2023-02-26T09:14:27;94982.49;;;2.18;40.22
48156;BME280;35568;48.104;11.782;2023-02-26T09:16:54;94984.31;;;2.19;40.16
48156;BME280;35568;48.104;11.782;2023-02-26T09:19:22;94986.22;;;2.08;39.78
48156;BME280;35568;48.104;11.782;2023-02-26T09:21:48;94988.28;;;1.73;40.33
48156;BME280;35568;48.104;11.782;2023-02-26T09:24:15;94987.75;;;1.88;40.51
48156;BME280;35568;48.104;11.782;2023-02-26T09:26:42;94987.89;;;2.05;40.33
48156;BME280;35568;48.104;11.782;2023-02-26T09:29:09;94989.74;;;2.16;40.14
48156;BME280;35568;48.104;11.782;2023-02-26T09:31:36;94993.73;;;2.00;39.68
48156;BME280;35568;48.104;11.782;2023-02-26T09:34:03;95000.32;;;2.39;39.70
48156;BME280;35568;48.104;11.782;2023-02-26T09:36:30;95007.10;;;2.52;39.98
48156;BME280;35568;48.104;11.782;2023-02-26T09:38:57;95009.43;;;1.86;39.42
48156;BME280;35568;48.104;11.782;2023-02-26T09:41:27;95010.42;;;1.82;40.33
48156;BME280;35568;48.104;11.782;2023-02-26T09:44:06;95016.84;;;1.92;39.63
48156;BME280;35568;48.104;11.782;2023-02-26T09:46:40;95022.44;;;2.08;41.21
48156;BME280;35568;48.104;11.782;2023-02-26T09:49:17;95024.06;;;2.10;41.15
48156;BME280;35568;48.104;11.782;2023-02-26T09:51:46;95027.21;;;2.21;41.14
48156;BME280;35568;48.104;11.782;2023-02-26T09:54:16;95026.04;;;2.37;41.36
48156;BME280;35568;48.104;11.782;2023-02-26T09:56:46;95025.54;;;3.12;40.20
48156;BME280;35568;48.104;11.782;2023-02-26T09:59:13;95028.07;;;3.63;39.20
48156;BME280;35568;48.104;11.782;2023-02-26T10:01:45;95025.52;;;3.63;38.76
48156;BME280;35568;48.104;11.782;2023-02-26T10:04:22;95029.02;;;3.77;38.64
48156;BME280;35568;48.104;11.782;2023-02-26T10:07:01;95028.16;;;3.34;38.76
48156;BME280;35568;48.104;11.782;2023-02-26T10:09:40;95026.64;;;3.75;38.93
48156;BME280;35568;48.104;11.782;2023-02-26T10:12:17;95029.65;;;3.60;38.68
48156;BME280;35568;48.104;11.782;2023-02-26T10:14:51;95033.73;;;3.81;39.21
48156;BME280;35568;48.104;11.782;2023-02-26T10:17:27;95030.91;;;3.39;38.58
48156;BME280;35568;48.104;11.782;2023-02-26T10:20:00;95028.47;;;3.44;39.16
48156;BME280;35568;48.104;11.782;2023-02-26T10:22:32;95024.76;;;3.59;38.68
48156;BME280;35568;48.104;11.782;2023-02-26T10:25:05;95022.58;;;3.77;38.26
48156;BME280;35568;48.104;11.782;2023-02-26T10:27:42;95024.30;;;4.13;38.46
48156;BME280;35568;48.104;11.782;2023-02-26T10:30:21;95025.54;;;3.85;38.81
48156;BME280;35568;48.104;11.782;2023-02-26T10:32:57;95026.30;;;3.35;38.92
48156;BME280;35568;48.104;11.782;2023-02-26T10:35:27;95026.81;;;3.46;38.62
48156;BME280;35568;48.104;11.782;2023-02-26T10:37:58;95029.55;;;3.13;39.79
48156;BME280;35568;48.104;11.782;2023-02-26T10:40:30;95025.13;;;2.44;40.94
48156;BME280;35568;48.104;11.782;2023-02-26T10:43:00;95031.64;;;2.07;41.22
48156;BME280;35568;48.104;11.782;2023-02-26T10:45:38;95030.44;;;2.32;41.67
48156;BME280;35568;48.104;11.782;2023-02-26T10:48:35;95023.26;;;2.14;41.81
48156;BME280;35568;48.104;11.782;2023-02-26T10:51:12;95022.25;;;2.70;41.09
48156;BME280;35568;48.104;11.782;2023-02-26T10:53:42;95017.75;;;2.63;40.81
48156;BME280;35568;48.104;11.782;2023-02-26T10:56:13;95011.14;;;3.23;39.98
48156;BME280;35568;48.104;11.782;2023-02-26T10:58:42;95006.34;;;2.85;40.01
48156;BME280;35568;48.104;11.782;2023-02-26T11:01:13;95001.11;;;3.19;40.03
48156;BME280;35568;48.104;11.782;2023-02-26T11:03:44;95002.35;;;2.91;40.65
48156;BME280;35568;48.104;11.782;2023-02-26T11:06:17;94998.96;;;2.64;40.63
48156;BME280;35568;48.104;11.782;2023-02-26T11:08:47;94994.66;;;2.82;40.97
48156;BME280;35568;48.104;11.782;2023-02-26T11:11:36;94993.85;;;3.10;41.15
48156;BME280;35568;48.104;11.782;2023-02-26T11:14:03;94988.44;;;3.09;41.04
48156;BME280;35568;48.104;11.782;2023-02-26T11:16:31;94988.05;;;2.66;40.95
48156;BME280;35568;48.104;11.782;2023-02-26T11:18:59;94985.05;;;2.92;41.07
48156;BME280;35568;48.104;11.782;2023-02-26T11:21:29;94987.28;;;2.63;40.84
48156;BME280;35568;48.104;11.782;2023-02-26T11:24:02;94990.05;;;3.15;41.10
48156;BME280;35568;48.104;11.782;2023-02-26T11:26:33;94990.78;;;4.15;39.16
48156;BME280;35568;48.104;11.782;2023-02-26T11:29:00;95003.41;;;4.49;39.22
48156;BME280;35568;48.104;11.782;2023-02-26T11:31:28;95005.69;;;4.78;38.85
48156;BME280;35568;48.104;11.782;2023-02-26T11:33:59;95019.60;;;4.54;37.38
48156;BME280;35568;48.104;11.782;2023-02-26T11:36:29;95022.84;;;3.49;40.08
48156;BME280;35568;48.104;11.782;2023-02-26T11:39:00;95021.71;;;2.78;41.42
48156;BME280;35568;48.104;11.782;2023-02-26T11:41:27;95019.97;;;2.41;42.19
48156;BME280;35568;48.104;11.782;2023-02-26T11:43:59;95024.91;;;1.89;42.87
48156;BME280;35568;48.104;11.782;2023-02-26T11:46:28;95027.20;;;2.13;43.45
48156;BME280;35568;48.104;11.782;2023-02-26T11:48:58;95033.96;;;3.80;41.58
48156;BME280;35568;48.104;11.782;2023-02-26T11:51:28;95033.30;;;5.40;39.47
48156;BME280;35568;48.104;11.782;2023-02-26T11:53:56;95032.26;;;6.37;36.57
48156;BME280;35568;48.104;11.782;2023-02-26T11:56:26;95032.96;;;6.09;36.49
48156;BME280;35568;48.104;11.782;2023-02-26T11:59:01;95034.65;;;5.63;35.62
48156;BME280;35568;48.104;11.782;2023-02-26T12:01:31;95038.76;;;4.44;36.36
48156;BME280;35568;48.104;11.782;2023-02-26T12:04:00;95041.64;;;4.50;36.92
48156;BME280;35568;48.104;11.782;2023-02-26T12:06:28;95039.65;;;4.36;37.97
48156;BME280;35568;48.104;11.782;2023-02-26T12:08:56;95040.95;;;4.10;39.02
48156;BME280;35568;48.104;11.782;2023-02-26T12:11:36;95035.05;;;3.66;39.49
48156;BME280;35568;48.104;11.782;2023-02-26T12:14:18;95033.08;;;3.18;40.71
48156;BME280;35568;48.104;11.782;2023-02-26T12:17:00;95035.79;;;2.41;41.31
48156;BME280;35568;48.104;11.782;2023-02-26T12:19:39;95037.40;;;2.02;41.92
48156;BME280;35568;48.104;11.782;2023-02-26T12:22:22;95036.69;;;2.33;41.43
48156;BME280;35568;48.104;11.782;2023-02-26T12:25:02;95045.90;;;3.68;39.99
48156;BME280;35568;48.104;11.782;2023-02-26T12:27:39;95048.97;;;3.43;39.17
48156;BME280;35568;48.104;11.782;2023-02-26T12:30:23;95049.76;;;4.25;39.22
48156;BME280;35568;48.104;11.782;2023-02-26T12:33:06;95049.08;;;3.72;38.31
48156;BME280;35568;48.104;11.782;2023-02-26T12:35:43;95044.54;;;3.63;39.12
48156;BME280;35568;48.104;11.782;2023-02-26T12:38:19;95040.32;;;3.01;38.74
48156;BME280;35568;48.104;11.782;2023-02-26T12:40:57;95051.25;;;3.87;38.98
48156;BME280;35568;48.104;11.782;2023-02-26T12:43:34;95047.29;;;3.37;38.72
48156;BME280;35568;48.104;11.782;2023-02-26T12:46:11;95046.93;;;3.91;38.39
48156;BME280;35568;48.104;11.782;2023-02-26T12:48:53;95042.85;;;3.61;38.93
48156;BME280;35568;48.104;11.782;2023-02-26T12:51:37;95036.11;;;3.59;38.95
48156;BME280;35568;48.104;11.782;2023-02-26T12:54:20;95026.69;;;4.64;38.27
48156;BME280;35568;48.104;11.782;2023-02-26T12:57:12;95016.22;;;5.77;36.32
48156;BME280;35568;48.104;11.782;2023-02-26T12:59:54;95016.07;;;6.77;34.71
48156;BME280;35568;48.104;11.782;2023-02-26T13:02:50;95011.91;;;8.06;32.52
48156;BME280;35568;48.104;11.782;2023-02-26T13:05:29;95008.80;;;8.92;31.00
48156;BME280;35568;48.104;11.782;2023-02-26T13:08:08;95011.30;;;8.59;31.31
48156;BME280;35568;48.104;11.782;2023-02-26T13:10:47;95006.96;;;7.73;31.66
48156;BME280;35568;48.104;11.782;2023-02-26T13:13:42;95016.63;;;8.62;31.88
48156;BME280;35568;48.104;11.782;2023-02-26T13:16:21;95017.34;;;6.85;32.32